Dewey R — WDC3093 — position and weather

sailwx.info

Track history (hours):
 
Tides and Currents Weather Stations Pressure Air Temp Water Temp Dewpoint Dewpoint Depression Visibility Wind Speed Wind Dir Waves Ship Positions

Dewey R

Owner: Apex Towing Company a division of Apex Oil Company, St. Louis, MO. More information available from US FCC via Universal Licensing System and Coast Guard Vessel Documentation Center.

Last reported at 2018-Apr-17 09:24 UTC. Time now 2018-Apr-20 12:48 UTC.
Position N 39°11' W 090°36'.

Length 45 m; draft 3 m.

Type: Tow > 200 m length. MMSI: 367002540.

Date/timePositionNaut miles runAvg speedWind from/ knotsBaromVisibWave heightAir tempDewpointWater temp
2018-Apr-17 09:24N 39°11' W 090°36'1 1.8
2018-Apr-17 08:53N 39°10' W 090°37'0 0.0
2018-Apr-17 08:29N 39°10' W 090°37'0 0.0
2018-Apr-17 08:00N 39°10' W 090°37'1 2.0
2018-Apr-17 07:21N 39°09' W 090°37'3 7.2
2018-Apr-17 06:59N 39°06' W 090°36'2 4.6
2018-Apr-17 06:30N 39°04' W 090°35'2 3.7
2018-Apr-17 06:00N 39°02' W 090°35'2 4.6
2018-Apr-17 05:31N 39°00' W 090°34'2 4.7
2018-Apr-17 05:01N 38°58' W 090°33'2 4.0
2018-Apr-17 04:30N 38°58' W 090°30'2 4.6
2018-Apr-17 04:01N 38°58' W 090°27'2 4.7
2018-Apr-17 03:31N 38°58' W 090°24'2 4.8
2018-Apr-17 03:01N 38°57' W 090°22'2 4.9
2018-Apr-17 02:31N 38°55' W 090°19'2 5.0
2018-Apr-17 02:00N 38°55' W 090°16'2 4.7
2018-Apr-17 01:31N 38°54' W 090°13'2 5.0
2018-Apr-17 01:01N 38°53' W 090°11'2 1.7
2018-Apr-17 00:08N 38°52' W 090°09'0 1.1
2018-Apr-17 00:01N 38°52' W 090°09'2 4.0
2018-Apr-16 23:31N 38°51' W 090°07'3 5.5
2018-Apr-16 23:01N 38°48' W 090°07'4 4.6
2018-Apr-16 22:04N 38°44' W 090°09'0 0.0
2018-Apr-16 21:55N 38°44' W 090°09'0 0.0
2018-Apr-16 21:30N 38°44' W 090°09'0 0.0
2018-Apr-16 21:01N 38°44' W 090°09'0 0.0
2018-Apr-16 20:31N 38°44' W 090°09'0 0.0
2018-Apr-16 19:59N 38°44' W 090°09'0 0.0
2018-Apr-16 19:30N 38°44' W 090°09'0 0.0
2018-Apr-16 19:00N 38°44' W 090°09'0 0.0
2018-Apr-16 18:31N 38°44' W 090°09'0 0.0
2018-Apr-16 18:00N 38°44' W 090°09'0 0.0
2018-Apr-16 17:30N 38°44' W 090°09'0 0.0
2018-Apr-16 17:00N 38°44' W 090°09'0 0.0
2018-Apr-16 16:30N 38°44' W 090°09'0 0.0
2018-Apr-16 16:00N 38°44' W 090°09'2 3.4
2018-Apr-16 15:30N 38°43' W 090°10'1 1.8
2018-Apr-16 14:59N 38°42' W 090°11'0 0.3
2018-Apr-16 14:30N 38°42' W 090°11'3 5.8
2018-Apr-16 14:01N 38°39' W 090°11'  
2018-Apr-11 00:56N 32°29' W 091°06'2 5.6
2018-Apr-11 00:30N 32°27' W 091°05'3 5.9
2018-Apr-11 00:00N 32°26' W 091°01'3 5.6
2018-Apr-10 23:30N 32°24' W 090°60'2 4.7
2018-Apr-10 23:00N 32°21' W 090°59'3 6.3
2018-Apr-10 22:30N 32°21' W 090°56'3 5.2
2018-Apr-10 22:00N 32°18' W 090°55'1 1.1
2018-Apr-10 21:30N 32°18' W 090°56'0 0.0
2018-Apr-10 21:00N 32°18' W 090°56'0 0.0
2018-Apr-10 20:30N 32°18' W 090°56'0 0.0
2018-Apr-10 20:00N 32°18' W 090°56'0 0.0
2018-Apr-10 19:27N 32°18' W 090°56'0 0.0
2018-Apr-10 19:00N 32°18' W 090°56'0 0.0
2018-Apr-10 18:30N 32°18' W 090°56'0 0.0
2018-Apr-10 18:00N 32°18' W 090°56'0 0.0
2018-Apr-10 17:30N 32°18' W 090°56'0 0.0
2018-Apr-10 17:00N 32°18' W 090°56'2 3.0
2018-Apr-10 16:30N 32°17' W 090°57'2 4.2
2018-Apr-10 16:00N 32°15' W 090°58'2 5.0
2018-Apr-10 15:30N 32°13' W 090°59'2 4.3
2018-Apr-10 15:00N 32°11' W 090°60'3 4.8
2018-Apr-10 14:26N 32°08' W 091°01'2 4.3
2018-Apr-10 13:57N 32°08' W 091°03'3 3.2
2018-Apr-10 13:01N 32°05' W 091°05'0 3.8
2018-Apr-10 12:56N 32°05' W 091°05'2 5.0
2018-Apr-10 12:30N 32°03' W 091°05'  
Track history (hours):
 
Tides and Currents Weather Stations Pressure Air Temp Water Temp Dewpoint Dewpoint Depression Visibility Wind Speed Wind Dir Waves Ship Positions

Dewey R

Owner: Apex Towing Company a division of Apex Oil Company, St. Louis, MO. More information available from US FCC via Universal Licensing System and Coast Guard Vessel Documentation Center.

Last reported at 2018-Apr-17 09:24 UTC. Time now 2018-Apr-20 12:48 UTC.
Position N 39°11' W 090°36'.

Length 45 m; draft 3 m.

Type: Tow > 200 m length. MMSI: 367002540.

Date/timePositionNaut miles runAvg speedWind from/ knotsBaromVisibWave heightAir tempDewpointWater temp
2018-Apr-17 09:24N 39°11' W 090°36'1 1.8
2018-Apr-17 08:53N 39°10' W 090°37'0 0.0
2018-Apr-17 08:29N 39°10' W 090°37'0 0.0
2018-Apr-17 08:00N 39°10' W 090°37'1 2.0
2018-Apr-17 07:21N 39°09' W 090°37'3 7.2
2018-Apr-17 06:59N 39°06' W 090°36'2 4.6
2018-Apr-17 06:30N 39°04' W 090°35'2 3.7
2018-Apr-17 06:00N 39°02' W 090°35'2 4.6
2018-Apr-17 05:31N 39°00' W 090°34'2 4.7
2018-Apr-17 05:01N 38°58' W 090°33'2 4.0
2018-Apr-17 04:30N 38°58' W 090°30'2 4.6
2018-Apr-17 04:01N 38°58' W 090°27'2 4.7
2018-Apr-17 03:31N 38°58' W 090°24'2 4.8
2018-Apr-17 03:01N 38°57' W 090°22'2 4.9
2018-Apr-17 02:31N 38°55' W 090°19'2 5.0
2018-Apr-17 02:00N 38°55' W 090°16'2 4.7
2018-Apr-17 01:31N 38°54' W 090°13'2 5.0
2018-Apr-17 01:01N 38°53' W 090°11'2 1.7
2018-Apr-17 00:08N 38°52' W 090°09'0 1.1
2018-Apr-17 00:01N 38°52' W 090°09'2 4.0
2018-Apr-16 23:31N 38°51' W 090°07'3 5.5
2018-Apr-16 23:01N 38°48' W 090°07'4 4.6
2018-Apr-16 22:04N 38°44' W 090°09'0 0.0
2018-Apr-16 21:55N 38°44' W 090°09'0 0.0
2018-Apr-16 21:30N 38°44' W 090°09'0 0.0
2018-Apr-16 21:01N 38°44' W 090°09'0 0.0
2018-Apr-16 20:31N 38°44' W 090°09'0 0.0
2018-Apr-16 19:59N 38°44' W 090°09'0 0.0
2018-Apr-16 19:30N 38°44' W 090°09'0 0.0
2018-Apr-16 19:00N 38°44' W 090°09'0 0.0
2018-Apr-16 18:31N 38°44' W 090°09'0 0.0
2018-Apr-16 18:00N 38°44' W 090°09'0 0.0
2018-Apr-16 17:30N 38°44' W 090°09'0 0.0
2018-Apr-16 17:00N 38°44' W 090°09'0 0.0
2018-Apr-16 16:30N 38°44' W 090°09'0 0.0
2018-Apr-16 16:00N 38°44' W 090°09'2 3.4
2018-Apr-16 15:30N 38°43' W 090°10'1 1.8
2018-Apr-16 14:59N 38°42' W 090°11'0 0.3
2018-Apr-16 14:30N 38°42' W 090°11'3 5.8
2018-Apr-16 14:01N 38°39' W 090°11'  
2018-Apr-11 00:56N 32°29' W 091°06'2 5.6
2018-Apr-11 00:30N 32°27' W 091°05'3 5.9
2018-Apr-11 00:00N 32°26' W 091°01'3 5.6
2018-Apr-10 23:30N 32°24' W 090°60'2 4.7
2018-Apr-10 23:00N 32°21' W 090°59'3 6.3
2018-Apr-10 22:30N 32°21' W 090°56'3 5.2
2018-Apr-10 22:00N 32°18' W 090°55'1 1.1
2018-Apr-10 21:30N 32°18' W 090°56'0 0.0
2018-Apr-10 21:00N 32°18' W 090°56'0 0.0
2018-Apr-10 20:30N 32°18' W 090°56'0 0.0
2018-Apr-10 20:00N 32°18' W 090°56'0 0.0
2018-Apr-10 19:27N 32°18' W 090°56'0 0.0
2018-Apr-10 19:00N 32°18' W 090°56'0 0.0
2018-Apr-10 18:30N 32°18' W 090°56'0 0.0
2018-Apr-10 18:00N 32°18' W 090°56'0 0.0
2018-Apr-10 17:30N 32°18' W 090°56'0 0.0
2018-Apr-10 17:00N 32°18' W 090°56'2 3.0
2018-Apr-10 16:30N 32°17' W 090°57'2 4.2
2018-Apr-10 16:00N 32°15' W 090°58'2 5.0
2018-Apr-10 15:30N 32°13' W 090°59'2 4.3
2018-Apr-10 15:00N 32°11' W 090°60'3 4.8
2018-Apr-10 14:26N 32°08' W 091°01'2 4.3
2018-Apr-10 13:57N 32°08' W 091°03'3 3.2
2018-Apr-10 13:01N 32°05' W 091°05'0 3.8
2018-Apr-10 12:56N 32°05' W 091°05'2 5.0
2018-Apr-10 12:30N 32°03' W 091°05'  

Dump ship's entire track history